createdAt,value
2022-09-06T00:25:44.698Z,67.47
2022-09-06T00:55:44.719Z,67.98
2022-09-06T01:25:44.734Z,68.44
2022-09-06T01:55:44.732Z,68.94
2022-09-06T02:25:44.737Z,69.39
2022-09-06T02:55:44.748Z,69.95
2022-09-06T03:25:44.750Z,70.5
2022-09-06T03:55:44.745Z,70.93
2022-09-06T04:25:44.749Z,71.31
2022-09-06T04:55:44.757Z,71.6
2022-09-06T05:25:44.757Z,71.62
2022-09-06T05:55:44.758Z,71.64
2022-09-06T06:25:44.772Z,71.5
2022-09-06T06:55:44.772Z,71.41
2022-09-06T07:25:44.792Z,70.78
2022-09-06T07:55:44.783Z,70.53
2022-09-06T08:25:44.794Z,69.55
2022-09-06T08:55:44.810Z,68.92
2022-09-06T09:25:44.804Z,68.91
2022-09-06T09:55:44.810Z,67.96
2022-09-06T10:25:46.351Z,66.95
2022-09-06T10:55:47.902Z,65.9
2022-09-06T11:25:44.839Z,64.06
2022-09-06T11:55:44.834Z,61.47
2022-09-06T12:25:44.836Z,59.94
2022-09-06T12:55:44.855Z,58.65
2022-09-06T13:25:44.849Z,55.41
2022-09-06T13:55:44.833Z,52.04
2022-09-06T14:25:44.847Z,49.98
2022-09-06T14:55:44.852Z,52.29
2022-09-06T15:25:44.854Z,50.49
2022-09-06T15:55:44.872Z,50
2022-09-06T16:25:44.878Z,49.97
2022-09-06T16:55:44.874Z,50.99
2022-09-06T17:25:44.902Z,51.48
2022-09-06T17:55:44.901Z,52.54
2022-09-06T18:25:44.906Z,53.76
2022-09-06T18:55:44.904Z,54.72
2022-09-06T19:25:44.911Z,55.66
2022-09-06T19:55:44.920Z,56.56
2022-09-06T20:25:44.925Z,57.61
2022-09-06T20:55:44.951Z,58.62
2022-09-06T21:25:44.953Z,59.23
2022-09-06T21:55:44.952Z,59.8
2022-09-06T22:25:44.957Z,60.7
2022-09-06T22:55:44.948Z,61.31
2022-09-06T23:25:44.947Z,61.91
2022-09-06T23:55:44.939Z,62.56
